createdAt,value
2018-08-23T00:00:46.912Z,2.40
2018-08-23T00:03:21.105Z,2.20
2018-08-23T00:05:52.245Z,2.13
2018-08-23T00:08:21.724Z,1.87
2018-08-23T00:10:51.443Z,2.03
2018-08-23T00:13:20.720Z,1.90
2018-08-23T00:15:49.764Z,2.10
2018-08-23T00:18:18.794Z,2.23
2018-08-23T00:20:47.897Z,2.20
2018-08-23T00:23:16.841Z,2.20
2018-08-23T00:25:45.839Z,2.37
2018-08-23T00:28:15.117Z,2.33
2018-08-23T00:30:44.476Z,1.70
2018-08-23T00:33:13.428Z,1.70
2018-08-23T00:35:42.420Z,2.00
2018-08-23T00:38:11.386Z,1.83
2018-08-23T00:40:44.649Z,1.80
2018-08-23T00:43:14.844Z,1.80
2018-08-23T00:45:47.110Z,1.87
2018-08-23T00:48:15.988Z,1.60
2018-08-23T00:50:48.625Z,1.67
2018-08-23T00:53:17.871Z,1.67
2018-08-23T00:55:46.961Z,2.00
2018-08-23T00:58:15.860Z,1.80
2018-08-23T01:00:49.098Z,2.10
2018-08-23T01:03:18.538Z,2.43
2018-08-23T01:05:47.502Z,1.97
2018-08-23T01:08:21.002Z,1.93
2018-08-23T01:10:49.900Z,2.17
2018-08-23T01:13:18.840Z,2.03
2018-08-23T01:15:49.523Z,2.60
2018-08-23T01:18:19.796Z,2.50
2018-08-23T01:20:50.423Z,2.60
2018-08-23T01:23:19.416Z,2.30
2018-08-23T01:25:49.419Z,2.20
2018-08-23T01:28:18.429Z,2.50
2018-08-23T01:30:48.300Z,2.33
2018-08-23T01:33:18.838Z,2.10
2018-08-23T01:35:48.952Z,2.47
2018-08-23T01:38:18.296Z,2.40
2018-08-23T01:40:47.370Z,2.50
2018-08-23T01:43:16.359Z,2.57
2018-08-23T01:45:45.376Z,2.30
2018-08-23T01:48:14.403Z,2.37
2018-08-23T01:50:43.732Z,2.63
2018-08-23T01:53:13.184Z,2.53
2018-08-23T01:55:42.243Z,2.57
2018-08-23T01:58:11.354Z,2.30
2018-08-23T02:00:40.434Z,2.63
2018-08-23T02:03:09.792Z,2.10
2018-08-23T02:05:43.289Z,2.40
2018-08-23T02:08:12.600Z,2.07
2018-08-23T02:10:41.663Z,1.90
2018-08-23T02:13:16.217Z,2.13
2018-08-23T02:15:51.354Z,2.30
2018-08-23T02:18:22.487Z,2.23
2018-08-23T02:21:00.066Z,1.97
2018-08-23T02:23:30.059Z,2.13
2018-08-23T02:26:00.628Z,2.30
2018-08-23T02:28:31.188Z,2.47
2018-08-23T02:31:01.227Z,2.40
2018-08-23T02:33:30.430Z,2.30
2018-08-23T02:36:22.495Z,2.40
2018-08-23T02:39:09.408Z,2.47
2018-08-23T02:41:41.484Z,2.10
2018-08-23T02:44:10.366Z,1.60
2018-08-23T02:46:39.325Z,1.30
2018-08-23T02:49:08.514Z,1.23
2018-08-23T02:51:53.888Z,1.13
2018-08-23T02:54:22.812Z,1.37
2018-08-23T02:56:57.918Z,1.50
2018-08-23T02:59:27.732Z,1.07
2018-08-23T03:01:56.936Z,1.10
2018-08-23T03:04:28.114Z,1.20
2018-08-23T03:07:01.027Z,1.10
2018-08-23T03:09:31.419Z,1.30
2018-08-23T03:12:01.816Z,1.20
2018-08-23T03:14:31.285Z,1.10
2018-08-23T03:17:20.784Z,1.10
2018-08-23T03:20:14.090Z,0.97
2018-08-23T03:22:45.045Z,0.73
2018-08-23T03:25:16.147Z,1.00
2018-08-23T03:27:45.195Z,1.23
2018-08-23T03:30:15.339Z,1.20
2018-08-23T03:32:44.308Z,1.50
2018-08-23T03:35:14.208Z,1.10
2018-08-23T03:37:43.126Z,1.27
2018-08-23T03:40:13.121Z,1.20
2018-08-23T03:42:42.380Z,1.00
2018-08-23T03:45:16.543Z,1.07
2018-08-23T03:47:53.060Z,1.20
2018-08-23T03:50:22.162Z,1.10
2018-08-23T03:52:52.535Z,1.17
2018-08-23T03:55:23.963Z,1.10
2018-08-23T03:58:07.617Z,1.10
2018-08-23T04:00:51.258Z,0.80
2018-08-23T04:03:20.780Z,1.00
2018-08-23T04:05:50.360Z,0.83
2018-08-23T04:08:19.704Z,0.80
2018-08-23T04:10:49.872Z,0.90
2018-08-23T04:13:19.424Z,1.00
2018-08-23T04:15:48.843Z,1.00
2018-08-23T04:18:18.198Z,1.00
2018-08-23T04:21:55.311Z,1.20
2018-08-23T04:24:25.257Z,1.00
2018-08-23T04:26:54.285Z,1.00
2018-08-23T04:29:34.007Z,1.00
2018-08-23T04:32:04.410Z,0.70
2018-08-23T04:34:37.756Z,1.10
2018-08-23T04:37:06.877Z,1.00
2018-08-23T04:39:36.077Z,0.90
2018-08-23T04:42:05.397Z,0.73
2018-08-23T04:44:42.980Z,0.80
2018-08-23T04:47:13.429Z,0.63
2018-08-23T04:49:42.730Z,0.73
2018-08-23T04:52:12.500Z,0.70
2018-08-23T04:54:41.612Z,0.70
2018-08-23T04:57:10.617Z,0.80
2018-08-23T04:59:40.432Z,1.47
2018-08-23T05:02:09.528Z,1.43
2018-08-23T05:04:39.941Z,2.10
2018-08-23T05:07:08.924Z,2.20
2018-08-23T05:09:38.085Z,2.50
2018-08-23T05:12:07.092Z,2.20
2018-08-23T05:14:37.091Z,3.07
2018-08-23T05:17:06.253Z,2.70
2018-08-23T05:19:35.396Z,3.00
2018-08-23T05:22:04.507Z,2.87
2018-08-23T05:24:34.382Z,3.10
2018-08-23T05:27:05.334Z,2.77
2018-08-23T05:29:34.356Z,2.90
2018-08-23T05:32:03.333Z,2.33
2018-08-23T05:34:32.425Z,2.60
2018-08-23T05:37:01.567Z,3.07
2018-08-23T05:39:41.343Z,2.30
2018-08-23T05:42:10.312Z,2.67
2018-08-23T05:44:41.810Z,2.90
2018-08-23T05:47:10.873Z,2.60
2018-08-23T05:49:41.674Z,3.07
2018-08-23T05:52:11.387Z,2.87
2018-08-23T05:54:40.503Z,2.67
2018-08-23T05:57:09.549Z,2.40
2018-08-23T05:59:38.578Z,2.50
2018-08-23T06:02:07.670Z,2.00
2018-08-23T06:04:42.404Z,2.00
2018-08-23T06:07:12.273Z,1.73
2018-08-23T06:09:43.488Z,1.90
2018-08-23T06:12:12.686Z,1.87
2018-08-23T06:14:41.774Z,1.80
2018-08-23T06:17:10.731Z,1.80
2018-08-23T06:19:40.388Z,1.90
2018-08-23T06:22:10.480Z,1.70
2018-08-23T06:24:39.517Z,2.10
2018-08-23T06:27:08.953Z,2.40
2018-08-23T06:29:38.956Z,2.23
2018-08-23T06:32:09.078Z,2.10
2018-08-23T06:34:51.401Z,2.00
2018-08-23T06:37:23.139Z,2.20
2018-08-23T06:39:52.424Z,2.03
2018-08-23T06:42:26.265Z,2.10
2018-08-23T06:44:56.006Z,2.20
2018-08-23T06:47:26.710Z,2.03
2018-08-23T06:49:56.855Z,2.10
2018-08-23T06:52:37.242Z,2.07
2018-08-23T06:55:07.077Z,2.10
2018-08-23T06:57:44.853Z,2.07
2018-08-23T07:00:21.504Z,2.70
2018-08-23T07:02:53.855Z,2.17
2018-08-23T07:05:29.289Z,2.13
2018-08-23T07:08:03.008Z,2.80
2018-08-23T07:10:38.235Z,2.30
2018-08-23T07:13:11.063Z,2.23
2018-08-23T07:15:46.002Z,2.37
2018-08-23T07:18:20.788Z,2.07
2018-08-23T07:20:50.316Z,2.40
2018-08-23T07:23:30.248Z,2.23
2018-08-23T07:26:00.567Z,2.07
2018-08-23T07:28:30.091Z,1.80
2018-08-23T07:30:59.446Z,1.93
2018-08-23T07:33:29.002Z,2.17
2018-08-23T07:36:09.298Z,2.00
2018-08-23T07:38:39.283Z,2.70
2018-08-23T07:41:08.380Z,1.80
2018-08-23T07:43:37.604Z,2.00
2018-08-23T07:46:07.753Z,2.10
2018-08-23T07:48:36.820Z,1.70
2018-08-23T07:51:13.818Z,1.90
2018-08-23T07:53:43.036Z,1.90
2018-08-23T07:56:26.670Z,1.90
2018-08-23T07:58:56.716Z,1.70
2018-08-23T08:01:27.492Z,1.73
2018-08-23T08:03:57.456Z,1.67
2018-08-23T08:06:28.530Z,1.60
2018-08-23T08:08:59.165Z,1.53
2018-08-23T08:11:33.172Z,1.70
2018-08-23T08:14:12.637Z,1.30
2018-08-23T08:16:41.622Z,1.70
2018-08-23T08:19:10.895Z,1.50
2018-08-23T08:21:39.873Z,1.47
2018-08-23T08:24:09.433Z,1.60
2018-08-23T08:26:38.620Z,1.40
2018-08-23T08:29:07.677Z,1.30
2018-08-23T08:31:36.700Z,1.23
2018-08-23T08:34:05.750Z,1.60
2018-08-23T08:36:34.766Z,1.70
2018-08-23T08:39:04.971Z,1.70
2018-08-23T08:41:36.674Z,1.40
2018-08-23T08:44:05.715Z,1.37
2018-08-23T08:46:34.832Z,1.87
2018-08-23T08:49:03.877Z,1.53
2018-08-23T08:51:33.453Z,1.43
2018-08-23T08:54:04.105Z,1.40
2018-08-23T08:56:41.420Z,1.27
2018-08-23T08:59:10.360Z,1.57
2018-08-23T09:01:39.388Z,1.40
2018-08-23T09:04:08.507Z,1.90
2018-08-23T09:06:45.809Z,1.87
2018-08-23T09:09:28.169Z,1.30
2018-08-23T09:11:59.071Z,1.20
2018-08-23T09:14:28.049Z,1.30
2018-08-23T09:16:57.285Z,1.30
2018-08-23T09:19:37.107Z,1.40
2018-08-23T09:22:11.383Z,1.50
2018-08-23T09:24:40.769Z,1.33
2018-08-23T09:27:17.877Z,1.47
2018-08-23T09:29:46.823Z,1.50
2018-08-23T09:32:21.430Z,1.33
2018-08-23T09:34:54.523Z,1.20
2018-08-23T09:37:23.481Z,1.40
2018-08-23T09:39:52.427Z,1.30
2018-08-23T09:42:21.353Z,1.40
2018-08-23T09:45:01.536Z,1.60
2018-08-23T09:47:32.032Z,1.13
2018-08-23T09:50:01.018Z,1.20
2018-08-23T09:52:31.435Z,1.40
2018-08-23T09:55:00.386Z,1.20
2018-08-23T09:57:29.304Z,1.10
2018-08-23T09:59:58.201Z,1.10
2018-08-23T10:02:32.405Z,1.20
2018-08-23T10:05:04.387Z,1.30
2018-08-23T10:07:38.504Z,1.00
2018-08-23T10:10:12.704Z,1.40
2018-08-23T10:12:46.741Z,1.40
2018-08-23T10:15:20.880Z,1.10
2018-08-23T10:17:54.828Z,1.20
2018-08-23T10:20:29.004Z,1.53
2018-08-23T10:23:03.399Z,1.50
2018-08-23T10:26:40.240Z,1.13
2018-08-23T10:29:09.303Z,1.47
2018-08-23T10:31:38.326Z,2.30
2018-08-23T10:34:07.404Z,1.83
2018-08-23T10:36:36.447Z,1.83
2018-08-23T10:39:09.937Z,1.80
2018-08-23T10:41:39.222Z,1.80
2018-08-23T10:44:08.383Z,1.83
2018-08-23T10:46:42.613Z,1.80
2018-08-23T10:49:11.740Z,2.00
2018-08-23T10:51:41.025Z,1.73
2018-08-23T10:54:10.731Z,2.13
2018-08-23T10:56:39.792Z,2.20
2018-08-23T10:59:09.570Z,2.30
2018-08-23T11:01:39.530Z,1.90
2018-08-23T11:04:09.933Z,2.10
2018-08-23T11:06:44.113Z,2.00
2018-08-23T11:09:18.107Z,2.33
2018-08-23T11:11:47.137Z,1.80
2018-08-23T11:14:21.356Z,2.30
2018-08-23T11:16:56.227Z,2.30
2018-08-23T11:19:30.350Z,2.00
2018-08-23T11:21:59.424Z,2.27
2018-08-23T11:24:28.427Z,2.13
2018-08-23T11:26:57.400Z,2.20
2018-08-23T11:29:27.624Z,1.97
2018-08-23T11:31:56.675Z,2.07
2018-08-23T11:34:26.223Z,2.00
2018-08-23T11:36:55.741Z,2.77
2018-08-23T11:39:24.711Z,2.67
2018-08-23T11:41:53.746Z,3.03
2018-08-23T11:44:22.790Z,2.50
2018-08-23T11:46:51.880Z,2.80
2018-08-23T11:49:21.515Z,2.47
2018-08-23T11:51:50.696Z,2.20
2018-08-23T11:54:23.446Z,2.90
2018-08-23T11:56:54.797Z,2.50
2018-08-23T11:59:23.956Z,2.30
2018-08-23T12:01:53.017Z,2.60
2018-08-23T12:04:21.983Z,2.10
2018-08-23T12:06:55.229Z,2.50
2018-08-23T12:09:30.056Z,2.40
2018-08-23T12:12:00.737Z,1.93
2018-08-23T12:14:30.911Z,2.50
2018-08-23T12:17:00.374Z,2.93
2018-08-23T12:19:29.639Z,2.23
2018-08-23T12:21:59.026Z,2.60
2018-08-23T12:24:32.029Z,2.30
2018-08-23T12:27:01.212Z,2.77
2018-08-23T12:29:30.395Z,2.03
2018-08-23T12:31:59.471Z,3.43
2018-08-23T12:34:38.134Z,2.20
2018-08-23T12:37:13.198Z,4.33
2018-08-23T12:39:47.497Z,3.50
2018-08-23T12:42:22.240Z,3.00
2018-08-23T12:44:54.200Z,2.97
2018-08-23T12:47:25.105Z,4.03
2018-08-23T12:49:58.987Z,3.67
2018-08-23T12:52:28.733Z,2.47
2018-08-23T12:54:57.757Z,2.63
2018-08-23T12:57:27.126Z,2.33
2018-08-23T12:59:56.164Z,2.00
2018-08-23T13:02:25.340Z,4.17
2018-08-23T13:04:54.593Z,1.80
2018-08-23T13:07:23.586Z,1.97
2018-08-23T13:09:52.916Z,5.07
2018-08-23T13:12:21.931Z,5.07
2018-08-23T13:14:51.654Z,1.80
2018-08-23T13:17:21.641Z,3.07
2018-08-23T13:19:50.869Z,5.17
2018-08-23T13:22:25.763Z,2.30
2018-08-23T13:25:00.136Z,2.50
2018-08-23T13:27:32.055Z,3.80
2018-08-23T13:30:01.927Z,5.50
2018-08-23T13:32:30.973Z,3.67
2018-08-23T13:35:00.640Z,3.93
2018-08-23T13:37:30.286Z,2.77
2018-08-23T13:39:59.356Z,2.93
2018-08-23T13:42:28.346Z,4.23
2018-08-23T13:44:58.044Z,3.23
2018-08-23T13:47:27.020Z,3.27
2018-08-23T13:49:56.048Z,2.43
2018-08-23T13:52:24.992Z,2.50
2018-08-23T13:54:55.200Z,5.30
2018-08-23T13:57:25.172Z,3.80
2018-08-23T13:59:54.306Z,6.30
2018-08-23T14:02:23.253Z,2.70
2018-08-23T14:04:56.124Z,2.83
2018-08-23T14:07:25.169Z,2.80
2018-08-23T14:09:54.076Z,2.70
2018-08-23T14:12:23.054Z,2.70
2018-08-23T14:15:02.361Z,7.87
2018-08-23T14:17:37.874Z,2.70
2018-08-23T14:20:07.492Z,2.93
2018-08-23T14:22:37.120Z,4.10
2018-08-23T14:25:07.512Z,2.83
2018-08-23T14:27:37.769Z,3.17
2018-08-23T14:30:07.437Z,3.60
2018-08-23T14:32:36.473Z,3.20
2018-08-23T14:35:08.649Z,3.70
2018-08-23T14:37:39.218Z,4.10
2018-08-23T14:40:08.738Z,4.13
2018-08-23T14:42:37.963Z,4.57
2018-08-23T14:45:08.832Z,4.13
2018-08-23T14:47:42.994Z,3.90
2018-08-23T14:50:12.302Z,4.53
2018-08-23T14:52:41.412Z,3.47
2018-08-23T14:55:10.757Z,3.70
2018-08-23T14:57:39.727Z,3.37
2018-08-23T15:00:09.092Z,3.80
2018-08-23T15:02:38.474Z,3.30
2018-08-23T15:05:07.473Z,3.43
2018-08-23T15:07:36.429Z,3.40
2018-08-23T15:10:05.492Z,4.00
2018-08-23T15:12:34.568Z,3.60
2018-08-23T15:15:03.888Z,3.47
2018-08-23T15:17:32.794Z,4.50
2018-08-23T15:20:01.756Z,3.67
2018-08-23T15:22:32.045Z,3.70
2018-08-23T15:25:01.081Z,3.30
2018-08-23T15:27:34.565Z,3.63
2018-08-23T15:30:05.005Z,3.40
2018-08-23T15:32:34.140Z,4.50
2018-08-23T15:35:03.308Z,3.90
2018-08-23T15:37:34.044Z,3.77
2018-08-23T15:40:03.043Z,4.00
2018-08-23T15:42:32.676Z,3.30
2018-08-23T15:45:01.762Z,3.90
2018-08-23T15:47:32.298Z,3.70
2018-08-23T15:50:02.153Z,3.70
2018-08-23T15:52:31.129Z,4.03
2018-08-23T15:55:01.418Z,3.43
2018-08-23T15:57:30.927Z,3.30
2018-08-23T16:00:00.353Z,3.30
2018-08-23T16:02:34.148Z,3.47
2018-08-23T16:05:03.269Z,3.33
2018-08-23T16:07:32.348Z,3.27
2018-08-23T16:10:04.695Z,2.97
2018-08-23T16:12:33.840Z,3.03
2018-08-23T16:15:11.567Z,3.50
2018-08-23T16:17:46.418Z,3.83
2018-08-23T16:20:20.541Z,3.13
2018-08-23T16:22:55.856Z,4.27
2018-08-23T16:25:24.900Z,3.30
2018-08-23T16:27:53.885Z,3.67
2018-08-23T16:30:22.894Z,3.57
2018-08-23T16:32:52.835Z,3.50
2018-08-23T16:35:23.374Z,3.67
2018-08-23T16:37:53.308Z,6.53
2018-08-23T16:40:27.393Z,3.33
2018-08-23T16:42:56.734Z,3.53
2018-08-23T16:45:25.843Z,3.20
2018-08-23T16:47:59.776Z,3.67
2018-08-23T16:50:30.699Z,3.80
2018-08-23T16:53:00.044Z,3.43
2018-08-23T16:55:32.074Z,3.93
2018-08-23T16:58:02.136Z,3.20
2018-08-23T17:00:31.229Z,3.43
2018-08-23T17:03:00.305Z,3.47
2018-08-23T17:05:29.304Z,3.50
2018-08-23T17:07:58.330Z,3.57
2018-08-23T17:10:28.589Z,3.40
2018-08-23T17:12:58.016Z,3.60
2018-08-23T17:15:32.623Z,3.47
2018-08-23T17:18:01.924Z,3.60
2018-08-23T17:20:33.497Z,3.70
2018-08-23T17:23:04.266Z,3.70
2018-08-23T17:25:34.687Z,3.63
2018-08-23T17:28:03.784Z,3.40
2018-08-23T17:30:33.972Z,3.50
2018-08-23T17:33:02.931Z,4.00
2018-08-23T17:35:32.413Z,3.40
2018-08-23T17:38:01.719Z,3.30
2018-08-23T17:40:32.947Z,3.20
2018-08-23T17:43:03.092Z,3.83
2018-08-23T17:45:32.336Z,4.53
2018-08-23T17:48:01.318Z,4.63
2018-08-23T17:50:30.423Z,4.33
2018-08-23T17:52:59.641Z,4.90
2018-08-23T17:55:30.942Z,4.30
2018-08-23T17:58:02.870Z,4.70
2018-08-23T18:00:35.484Z,3.57
2018-08-23T18:03:04.547Z,3.97
2018-08-23T18:05:35.942Z,3.57
2018-08-23T18:08:05.180Z,3.93
2018-08-23T18:10:34.446Z,4.13
2018-08-23T18:13:04.643Z,3.53
2018-08-23T18:15:38.552Z,3.53
2018-08-23T18:18:12.051Z,3.33
2018-08-23T18:20:42.948Z,2.93
2018-08-23T18:23:11.925Z,3.03
2018-08-23T18:25:46.947Z,4.03
2018-08-23T18:28:20.161Z,2.77
2018-08-23T18:30:55.864Z,3.77
2018-08-23T18:33:26.982Z,3.33
2018-08-23T18:35:56.025Z,2.97
2018-08-23T18:38:26.064Z,3.27
2018-08-23T18:40:59.232Z,2.97
2018-08-23T18:43:28.462Z,3.27
2018-08-23T18:45:57.460Z,3.07
2018-08-23T18:48:26.591Z,3.73
2018-08-23T18:50:56.396Z,2.73
2018-08-23T18:53:25.352Z,3.10
2018-08-23T18:55:54.351Z,2.67
2018-08-23T18:58:23.504Z,2.60
2018-08-23T19:00:52.390Z,3.13
2018-08-23T19:03:21.474Z,3.57
2018-08-23T19:05:50.754Z,2.90
2018-08-23T19:08:19.628Z,3.40
2018-08-23T19:10:48.641Z,3.40
2018-08-23T19:13:17.760Z,2.80
2018-08-23T19:15:52.039Z,3.10
2018-08-23T19:18:21.172Z,2.97
2018-08-23T19:20:50.233Z,3.37
2018-08-23T19:23:19.384Z,3.03
2018-08-23T19:25:49.677Z,3.40
2018-08-23T19:28:18.588Z,2.93
2018-08-23T19:30:47.660Z,3.00
2018-08-23T19:33:17.448Z,2.93
2018-08-23T19:35:46.374Z,3.40
2018-08-23T19:38:16.131Z,3.17
2018-08-23T19:40:45.093Z,2.90
2018-08-23T19:43:14.133Z,3.23
2018-08-23T19:45:48.434Z,2.93
2018-08-23T19:48:17.506Z,3.40
2018-08-23T19:50:46.581Z,3.00
2018-08-23T19:53:15.568Z,3.23
2018-08-23T19:55:44.583Z,3.40
2018-08-23T19:58:13.602Z,3.17
2018-08-23T20:00:42.847Z,2.90
2018-08-23T20:03:11.796Z,2.90
2018-08-23T20:05:41.152Z,3.27
2018-08-23T20:08:10.148Z,3.00
2018-08-23T20:10:39.249Z,2.83
2018-08-23T20:13:08.314Z,3.17
2018-08-23T20:15:37.245Z,3.33
2018-08-23T20:18:06.616Z,3.03
2018-08-23T20:20:35.710Z,2.80
2018-08-23T20:23:05.183Z,2.90
2018-08-23T20:25:34.273Z,2.90
2018-08-23T20:28:03.540Z,3.00
2018-08-23T20:30:32.649Z,3.10
2018-08-23T20:33:02.328Z,3.23
2018-08-23T20:35:31.492Z,2.90
2018-08-23T20:38:01.115Z,3.03
2018-08-23T20:40:30.345Z,3.07
2018-08-23T20:42:59.985Z,3.40
2018-08-23T20:45:29.596Z,3.63
2018-08-23T20:47:58.598Z,3.20
2018-08-23T20:50:27.642Z,3.77
2018-08-23T20:52:56.561Z,2.90
2018-08-23T20:55:25.540Z,2.90
2018-08-23T20:57:54.509Z,3.27
2018-08-23T21:00:23.567Z,3.40
2018-08-23T21:02:52.575Z,2.67
2018-08-23T21:05:21.842Z,2.70
2018-08-23T21:07:50.872Z,3.27
2018-08-23T21:10:20.625Z,3.43
2018-08-23T21:12:49.660Z,3.00
2018-08-23T21:15:19.478Z,3.43
2018-08-23T21:17:49.206Z,2.70
2018-08-23T21:20:18.388Z,2.60
2018-08-23T21:22:48.270Z,3.00
2018-08-23T21:25:17.390Z,2.57
2018-08-23T21:27:46.521Z,2.60
2018-08-23T21:30:15.558Z,2.40
2018-08-23T21:32:44.554Z,2.50
2018-08-23T21:35:13.813Z,2.50
2018-08-23T21:37:42.831Z,2.43
2018-08-23T21:40:12.152Z,2.53
2018-08-23T21:42:43.071Z,2.50
2018-08-23T21:45:12.262Z,2.60
2018-08-23T21:47:41.581Z,2.20
2018-08-23T21:50:10.576Z,2.83
2018-08-23T21:52:41.598Z,1.70
2018-08-23T21:58:02.988Z,2.20
2018-08-23T22:00:38.028Z,2.30
2018-08-23T22:03:07.760Z,2.17
2018-08-23T22:05:36.825Z,2.07
2018-08-23T22:08:05.947Z,2.20
2018-08-23T22:10:34.873Z,1.70
2018-08-23T22:13:03.916Z,2.00
2018-08-23T22:15:35.363Z,1.90
2018-08-23T22:18:04.422Z,1.93
2018-08-23T22:20:33.444Z,2.37
2018-08-23T22:23:04.105Z,2.10
2018-08-23T22:25:36.458Z,2.13
2018-08-23T22:28:05.971Z,2.30
2018-08-23T22:30:37.054Z,2.17
2018-08-23T22:33:06.367Z,2.30
2018-08-23T22:35:35.370Z,2.20
2018-08-23T22:38:04.822Z,2.27
2018-08-23T22:40:34.468Z,2.43
2018-08-23T22:43:04.553Z,2.33
2018-08-23T22:45:33.607Z,2.53
2018-08-23T22:48:03.656Z,2.40
2018-08-23T22:50:33.644Z,2.13
2018-08-23T22:53:03.845Z,1.83
2018-08-23T22:55:34.942Z,2.53
2018-08-23T22:58:04.090Z,2.30
2018-08-23T23:00:38.315Z,2.37
2018-08-23T23:04:10.689Z,2.33
2018-08-23T23:06:40.164Z,1.87
2018-08-23T23:09:13.091Z,1.77
2018-08-23T23:11:42.635Z,1.73
2018-08-23T23:14:12.500Z,2.80
2018-08-23T23:16:41.990Z,2.67
2018-08-23T23:19:13.201Z,2.17
2018-08-23T23:21:43.236Z,2.47
2018-08-23T23:24:17.374Z,2.60
2018-08-23T23:26:46.569Z,2.20
2018-08-23T23:29:15.783Z,2.77
2018-08-23T23:31:45.282Z,2.20
2018-08-23T23:34:14.336Z,2.33
2018-08-23T23:36:45.450Z,2.37
2018-08-23T23:39:14.881Z,1.87
2018-08-23T23:41:51.280Z,2.23
2018-08-23T23:44:21.860Z,2.17
2018-08-23T23:46:56.363Z,2.17
2018-08-23T23:49:29.401Z,2.30
2018-08-23T23:51:58.417Z,2.20
2018-08-23T23:54:27.516Z,2.53
2018-08-23T23:56:56.878Z,2.20
2018-08-23T23:59:26.248Z,2.10
